Time;durP1;ratioP1;P1;durP2;ratioP2;P2;SDS_P1;SDS_P2;PMS_P1;PMS_P2;Temp;Humidity;BMP_temperature;BMP_pressure;BME280_temperature;BME280_humidity;BME280_pressure;Samples;Min_cycle;Max_cycle;Signal;HPM_P1;HPM_P2
2021/08/25 00:02:15;;;;;;;22.98;17.83;;;;;;;21.54;54.85;94882.81;5032218;28;20417;-78
2021/08/25 00:04:41;;;;;;;24.02;17.40;;;;;;;21.51;55.10;94886.06;5033306;28;20448;-78
2021/08/25 00:07:07;;;;;;;22.35;17.02;;;;;;;21.51;55.20;94888.69;5032683;28;20021;-78
2021/08/25 00:09:34;;;;;;;25.50;17.73;;;;;;;21.47;55.16;94890.34;5033144;28;20509;-78
2021/08/25 00:11:59;;;;;;;29.77;18.15;;;;;;;21.49;54.89;94890.06;5031805;28;20053;-79
2021/08/25 00:14:24;;;;;;;26.88;18.58;;;;;;;21.47;54.99;94892.22;5034498;28;20463;-78
2021/08/25 00:16:53;;;;;;;27.92;18.63;;;;;;;21.47;55.05;94895.66;5031701;28;20532;-79
2021/08/25 00:19:18;;;;;;;25.00;19.42;;;;;;;21.49;54.75;94904.09;5034493;28;20040;-78
2021/08/25 00:21:44;;;;;;;29.50;19.63;;;;;;;21.50;54.54;94897.72;5033700;28;20034;-78
2021/08/25 00:24:09;;;;;;;24.85;20.10;;;;;;;21.51;54.47;94899.28;5034203;28;20486;-78
2021/08/25 00:26:34;;;;;;;33.70;21.10;;;;;;;21.53;54.61;94902.41;5032793;28;20425;-79
2021/08/25 00:29:00;;;;;;;32.05;20.50;;;;;;;21.55;54.71;94899.47;5001114;28;20029;-79
2021/08/25 00:31:31;;;;;;;25.65;19.55;;;;;;;21.57;54.49;94892.78;5033911;28;20103;-79
2021/08/25 00:33:58;;;;;;;26.10;19.83;;;;;;;21.61;54.57;94897.47;5015337;28;20120;-79
2021/08/25 00:36:23;;;;;;;36.53;20.27;;;;;;;21.63;54.54;94900.59;5031472;28;20041;-79
2021/08/25 00:38:48;;;;;;;35.63;19.95;;;;;;;21.64;54.72;94895.03;5034892;28;20052;-79
2021/08/25 00:41:14;;;;;;;31.27;19.13;;;;;;;21.67;54.58;94883.06;5034912;28;20508;-79
2021/08/25 00:43:39;;;;;;;31.52;18.83;;;;;;;21.67;54.93;94880.41;5033583;28;20417;-79
2021/08/25 00:46:06;;;;;;;28.75;19.45;;;;;;;21.68;55.27;94887.28;5034738;28;20045;-79
2021/08/25 00:48:31;;;;;;;26.58;19.15;;;;;;;21.68;55.15;94882.75;5032831;28;20037;-79
2021/08/25 00:50:56;;;;;;;31.70;20.35;;;;;;;21.67;54.89;94893.66;5016230;28;20483;-79
2021/08/25 00:53:22;;;;;;;28.17;19.58;;;;;;;21.68;54.54;94897.84;5000474;28;21081;-79
2021/08/25 00:55:52;;;;;;;29.17;22.30;;;;;;;21.60;55.06;94896.69;5034224;28;20455;-79
2021/08/25 00:58:20;;;;;;;33.28;22.80;;;;;;;21.55;55.25;94889.66;5032735;28;20025;-79
2021/08/25 01:00:51;;;;;;;27.02;20.45;;;;;;;21.53;55.27;94886.53;4951544;22;20175;-79
2021/08/25 01:03:33;;;;;;;29.75;19.83;;;;;;;21.55;55.33;94886.22;4991971;28;20568;-78
2021/08/25 01:05:58;;;;;;;31.75;20.98;;;;;;;21.53;55.55;94881.25;5009485;28;20041;-79
2021/08/25 01:08:24;;;;;;;26.67;20.02;;;;;;;21.50;55.50;94884.50;4977531;28;20445;-79
2021/08/25 01:10:50;;;;;;;25.33;18.58;;;;;;;21.52;55.67;94889.47;5008648;28;20482;-79
2021/08/25 01:13:15;;;;;;;29.48;18.60;;;;;;;21.54;55.72;94880.16;4992996;28;20442;-79
2021/08/25 01:15:53;;;;;;;26.15;18.85;;;;;;;21.52;55.91;94874.38;4994068;28;20047;-79
2021/08/25 01:18:18;;;;;;;26.42;19.10;;;;;;;21.52;55.78;94869.09;4993905;28;20118;-79
2021/08/25 01:20:46;;;;;;;25.52;19.00;;;;;;;21.52;56.02;94873.59;4993579;28;20558;-79
2021/08/25 01:23:12;;;;;;;33.03;20.15;;;;;;;21.51;55.79;94861.47;4991991;28;20087;-79
2021/08/25 01:25:38;;;;;;;29.17;19.58;;;;;;;21.57;55.92;94857.59;4993841;28;20065;-79
2021/08/25 01:28:07;;;;;;;24.80;18.25;;;;;;;21.60;55.71;94858.88;5009901;28;20038;-79
2021/08/25 01:30:34;;;;;;;31.40;20.80;;;;;;;21.62;55.75;94846.88;4994775;28;20457;-78
2021/08/25 01:32:59;;;;;;;49.33;35.35;;;;;;;21.67;55.83;94841.50;4991901;28;20324;-79
2021/08/25 01:35:58;;;;;;;40.28;27.48;;;;;;;21.68;55.73;94850.22;4992288;28;20042;-79
2021/08/25 01:38:52;;;;;;;25.88;19.48;;;;;;;21.70;55.41;94843.53;4994213;28;20066;-79
2021/08/25 01:41:19;;;;;;;23.90;18.95;;;;;;;21.71;55.47;94829.22;5006917;28;20027;-79
2021/08/25 01:43:57;;;;;;;25.52;18.75;;;;;;;21.74;55.44;94822.53;4995914;28;20061;-78
2021/08/25 01:46:28;;;;;;;30.05;19.13;;;;;;;21.71;55.48;94812.56;4997235;28;20428;-79
2021/08/25 01:48:54;;;;;;;26.75;19.10;;;;;;;21.71;55.54;94807.28;4995605;28;20027;-79
2021/08/25 01:51:19;;;;;;;29.15;19.70;;;;;;;21.70;55.55;94803.06;4996817;28;20034;-79
2021/08/25 01:53:45;;;;;;;25.15;19.65;;;;;;;21.70;55.60;94789.84;4995340;28;20058;-79
2021/08/25 01:56:10;;;;;;;28.92;18.90;;;;;;;21.65;55.86;94788.09;4996109;28;20058;-78
2021/08/25 01:58:37;;;;;;;29.63;18.45;;;;;;;21.67;55.70;94790.44;4996891;28;20037;-79
2021/08/25 02:01:02;;;;;;;26.88;19.17;;;;;;;21.67;55.81;94793.88;4995007;28;20427;-79
2021/08/25 02:03:31;;;;;;;33.10;19.95;;;;;;;21.58;55.87;94799.09;4996308;28;20110;-79
2021/08/25 02:05:56;;;;;;;33.45;20.23;;;;;;;21.56;56.03;94785.38;4997229;28;20037;-79
2021/08/25 02:08:21;;;;;;;31.00;20.52;;;;;;;21.55;56.07;94791.75;4997232;28;20034;-79
2021/08/25 02:10:47;;;;;;;36.22;19.33;;;;;;;21.53;56.32;94790.50;5012542;28;20034;-79
2021/08/25 02:13:18;;;;;;;34.83;19.75;;;;;;;21.51;56.49;94788.16;4996940;28;20081;-79
2021/08/25 02:15:44;;;;;;;30.77;19.83;;;;;;;21.21;57.36;94789.59;4995802;28;20128;-79
2021/08/25 02:18:12;;;;;;;31.02;20.35;;;;;;;21.09;57.86;94791.97;4996458;28;20495;-78
2021/08/25 02:20:38;;;;;;;26.63;20.30;;;;;;;21.07;58.10;94794.16;4994814;28;20031;-78
2021/08/25 02:23:03;;;;;;;30.98;20.67;;;;;;;21.02;58.19;94796.13;4994785;28;20033;-79
2021/08/25 02:25:29;;;;;;;28.38;22.15;;;;;;;20.97;58.33;94800.41;5079153;22;20049;-78
2021/08/25 02:27:57;;;;;;;30.83;19.23;;;;;;;21.01;58.05;94803.28;5034629;28;20033;-78
2021/08/25 02:30:26;;;;;;;30.67;20.55;;;;;;;21.03;58.18;94803.75;5032443;28;20120;-78
2021/08/25 02:32:51;;;;;;;31.00;19.52;;;;;;;21.03;58.27;94808.25;5034927;28;20386;-78
2021/08/25 02:35:17;;;;;;;31.80;20.15;;;;;;;21.05;58.37;94819.31;5034815;28;20531;-78
2021/08/25 02:37:42;;;;;;;31.08;21.42;;;;;;;21.04;58.14;94820.41;5034536;28;20040;-78
2021/08/25 02:40:08;;;;;;;35.35;22.88;;;;;;;20.99;58.59;94829.22;5015877;28;20190;-78
2021/08/25 02:42:34;;;;;;;34.58;22.20;;;;;;;20.96;58.81;94838.50;5034651;28;20033;-78
2021/08/25 02:45:00;;;;;;;32.92;21.92;;;;;;;20.96;59.07;94845.66;5049163;22;20037;-78
2021/08/25 02:49:54;;;;;;;31.33;21.85;;;;;;;20.91;59.17;94854.47;5045453;22;20050;-78
2021/08/25 02:52:20;;;;;;;32.10;21.65;;;;;;;20.90;59.43;94863.50;5047336;22;20053;-78
2021/08/25 02:54:52;;;;;;;28.98;20.83;;;;;;;20.91;59.54;94865.06;5033241;28;20033;-78
2021/08/25 02:59:44;;;;;;;36.17;21.65;;;;;;;20.92;59.27;94861.34;5115224;22;20124;-78
2021/08/25 03:02:12;;;;;;;35.28;19.70;;;;;;;20.94;59.07;94864.47;5038350;22;20543;-79
2021/08/25 03:04:38;;;;;;;24.40;19.10;;;;;;;21.01;58.75;94868.59;5033553;28;20026;-79
2021/08/25 03:07:03;;;;;;;40.17;21.30;;;;;;;21.01;58.60;94881.81;5032664;28;20464;-79
2021/08/25 03:09:29;;;;;;;24.60;18.77;;;;;;;21.03;58.37;94877.00;5032490;28;20041;-78
2021/08/25 03:11:54;;;;;;;27.33;18.90;;;;;;;21.04;57.66;94879.34;5031901;28;20056;-79
2021/08/25 03:14:20;;;;;;;20.70;15.75;;;;;;;21.07;56.92;94880.63;5030463;28;20048;-79
2021/08/25 03:16:45;;;;;;;21.00;15.95;;;;;;;21.07;56.67;94873.47;5036249;28;20089;-79
2021/08/25 03:19:13;;;;;;;23.30;16.35;;;;;;;21.15;55.97;94882.53;5040516;28;20059;-79
2021/08/25 03:21:42;;;;;;;23.83;15.48;;;;;;;21.17;55.64;94888.34;5062556;22;20429;-79
2021/08/25 03:24:08;;;;;;;19.92;14.40;;;;;;;21.18;55.25;94876.69;5042631;28;20129;-79
2021/08/25 03:26:37;;;;;;;25.08;14.20;;;;;;;21.15;54.52;94871.97;5040527;28;20090;-79
2021/08/25 03:29:03;;;;;;;20.80;13.77;;;;;;;21.17;54.41;94872.47;5040247;28;20501;-78
2021/08/25 03:31:28;;;;;;;19.42;12.95;;;;;;;21.15;54.57;94869.31;4998731;28;20040;-78
2021/08/25 03:33:54;;;;;;;21.25;13.90;;;;;;;21.17;54.41;94862.69;5035010;28;20057;-79
2021/08/25 03:36:19;;;;;;;21.02;14.90;;;;;;;21.17;54.71;94867.19;5034271;28;20029;-79
2021/08/25 03:38:51;;;;;;;26.13;14.43;;;;;;;21.20;54.73;94875.31;5013481;22;20038;-79
2021/08/25 03:41:17;;;;;;;20.75;14.38;;;;;;;21.21;54.93;94862.88;5012979;28;20030;-78
2021/08/25 03:43:42;;;;;;;24.05;15.20;;;;;;;21.15;55.02;94869.31;5013668;28;20037;-78
2021/08/25 03:46:08;;;;;;;20.00;15.32;;;;;;;21.12;55.04;94869.94;5009386;28;20034;-78
2021/08/25 03:48:33;;;;;;;20.90;15.52;;;;;;;21.12;54.89;94869.94;5028193;23;20040;-78
2021/08/25 03:50:59;;;;;;;23.17;15.32;;;;;;;21.10;55.03;94874.72;5033128;28;20037;-78
2021/08/25 03:53:24;;;;;;;18.33;14.50;;;;;;;21.06;55.43;94863.19;5038379;28;20025;-78
2021/08/25 03:55:50;;;;;;;34.95;14.18;;;;;;;21.04;54.96;94852.13;5003794;28;20063;-78
2021/08/25 03:58:15;;;;;;;19.52;15.20;;;;;;;21.00;55.27;94856.44;5002117;28;20123;-79
2021/08/25 04:00:41;;;;;;;18.58;14.95;;;;;;;20.97;55.59;94853.28;5013660;28;20432;-78
2021/08/25 04:03:06;;;;;;;24.27;16.27;;;;;;;20.98;55.75;94857.50;5032438;28;20032;-78
2021/08/25 04:05:32;;;;;;;24.42;17.38;;;;;;;20.94;56.24;94848.59;5032164;28;20017;-78
2021/08/25 04:08:04;;;;;;;26.98;18.98;;;;;;;20.87;57.09;94858.81;5032203;28;20041;-78
2021/08/25 04:10:29;;;;;;;30.08;19.67;;;;;;;20.86;57.02;94851.19;5046530;22;20108;-78
2021/08/25 04:12:54;;;;;;;27.85;20.63;;;;;;;20.85;57.73;94845.09;5012782;28;20034;-78
2021/08/25 04:15:20;;;;;;;26.05;18.48;;;;;;;20.87;58.01;94848.22;5032592;28;20029;-78
2021/08/25 04:17:51;;;;;;;30.17;20.10;;;;;;;20.91;57.91;94843.91;5031061;28;20033;-78
2021/08/25 04:20:23;;;;;;;37.05;19.40;;;;;;;20.93;57.59;94849.69;5031405;28;20101;-78
2021/08/25 04:22:48;;;;;;;41.88;19.45;;;;;;;20.95;57.63;94850.16;5031497;28;20034;-78
2021/08/25 04:25:17;;;;;;;30.25;19.40;;;;;;;20.97;57.59;94841.94;5032499;28;20040;-78
2021/08/25 04:27:42;;;;;;;35.72;19.58;;;;;;;21.04;57.43;94838.91;5032549;28;20030;-78
2021/08/25 04:30:08;;;;;;;27.42;19.05;;;;;;;21.05;57.12;94848.41;5014842;28;20037;-78
2021/08/25 04:32:34;;;;;;;32.85;19.35;;;;;;;21.10;57.05;94856.22;5014937;28;20398;-78
2021/08/25 04:34:59;;;;;;;32.10;18.70;;;;;;;21.17;56.86;94846.81;5014819;28;20025;-78
2021/08/25 04:37:25;;;;;;;27.58;19.02;;;;;;;21.22;56.83;94848.56;5012386;28;20067;-78
2021/08/25 04:39:50;;;;;;;28.23;17.45;;;;;;;21.24;56.68;94838.47;5032749;28;20060;-78
2021/08/25 04:42:15;;;;;;;34.90;18.85;;;;;;;21.25;56.55;94838.19;5032593;28;20397;-78
2021/08/25 04:44:41;;;;;;;36.03;19.35;;;;;;;21.36;56.28;94837.97;5032591;28;20029;-78
2021/08/25 04:47:06;;;;;;;34.72;18.95;;;;;;;21.42;56.13;94837.56;5013313;28;20025;-78
2021/08/25 04:49:32;;;;;;;52.20;19.63;;;;;;;21.50;56.10;94830.78;5047967;22;20029;-78
2021/08/25 04:52:00;;;;;;;30.52;19.35;;;;;;;21.61;56.07;94839.25;5049171;22;20041;-78
2021/08/25 04:54:25;;;;;;;51.45;20.42;;;;;;;21.70;55.71;94837.47;5013790;28;20026;-78
2021/08/25 04:56:51;;;;;;;28.00;19.30;;;;;;;21.83;55.20;94831.34;5012620;28;20034;-78
2021/08/25 04:59:16;;;;;;;35.28;19.55;;;;;;;22.07;54.26;94831.81;4995107;28;20034;-79
2021/08/25 05:01:42;;;;;;;28.38;19.52;;;;;;;22.61;53.22;94824.56;4995339;28;20402;-79
2021/08/25 05:04:07;;;;;;;29.48;17.27;;;;;;;24.00;48.55;94830.81;4995646;28;20414;-79
2021/08/25 05:06:33;;;;;;;28.38;18.15;;;;;;;25.36;45.54;94826.31;4995733;28;20045;-79
2021/08/25 05:08:58;;;;;;;26.65;17.50;;;;;;;26.60;43.03;94822.66;4979199;28;20205;-78
2021/08/25 05:11:23;;;;;;;26.60;16.90;;;;;;;27.65;40.24;94814.75;5014845;28;20037;-79
2021/08/25 05:13:52;;;;;;;28.25;16.90;;;;;;;28.52;38.18;94818.56;5014031;28;20033;-78
2021/08/25 05:16:17;;;;;;;24.00;14.68;;;;;;;29.61;36.32;94830.22;4981442;28;20022;-79
2021/08/25 05:18:43;;;;;;;30.33;15.43;;;;;;;30.57;34.52;94817.81;5001610;28;20030;-79
2021/08/25 05:21:09;;;;;;;29.02;16.08;;;;;;;31.31;32.93;94823.59;5018049;28;20038;-79
2021/08/25 05:23:40;;;;;;;22.02;14.25;;;;;;;32.18;31.32;94821.53;5017030;28;20209;-79
2021/08/25 05:26:06;;;;;;;29.15;13.90;;;;;;;32.94;29.53;94823.78;5019369;28;20040;-79
2021/08/25 05:28:32;;;;;;;23.98;12.70;;;;;;;33.81;27.98;94823.88;5022995;28;20026;-79
2021/08/25 05:30:57;;;;;;;23.25;13.45;;;;;;;34.58;26.38;94817.94;5023545;28;20121;-79
2021/08/25 05:33:23;;;;;;;46.58;14.43;;;;;;;35.38;25.48;94820.22;5003701;28;20049;-79
2021/08/25 05:35:48;;;;;;;26.05;13.77;;;;;;;36.21;24.76;94818.72;5000272;28;20030;-78
2021/08/25 05:38:14;;;;;;;21.58;13.88;;;;;;;37.00;23.88;94820.91;5011809;28;20485;-78
2021/08/25 05:43:17;;;;;;;24.25;13.05;;;;;;;38.49;21.69;94821.88;5015661;26;20050;-77
2021/08/25 05:45:45;;;;;;;26.75;12.20;;;;;;;39.05;20.55;94822.16;5031053;28;20041;-78
2021/08/25 05:48:11;;;;;;;22.80;13.35;;;;;;;39.64;20.15;94829.69;5033063;28;20042;-77
2021/08/25 05:50:36;;;;;;;18.05;12.65;;;;;;;40.10;19.83;94838.91;5032663;28;20127;-77
2021/08/25 05:53:02;;;;;;;25.75;13.73;;;;;;;40.33;19.20;94830.59;5014432;28;20034;-77
2021/08/25 05:55:27;;;;;;;27.27;12.70;;;;;;;40.86;18.96;94830.63;5032755;28;20025;-77
2021/08/25 05:57:53;;;;;;;16.90;11.48;;;;;;;41.01;18.46;94824.38;5038067;22;20072;-78
2021/08/25 06:00:18;;;;;;;19.75;11.35;;;;;;;41.16;17.82;94822.03;5032611;28;20037;-78
2021/08/25 06:02:46;;;;;;;18.75;11.93;;;;;;;41.25;17.77;94810.53;5032852;28;20029;-78
2021/08/25 06:05:13;;;;;;;23.65;11.65;;;;;;;41.31;17.95;94808.81;5014987;28;20560;-78
2021/08/25 06:07:38;;;;;;;18.98;12.23;;;;;;;41.02;18.37;94808.78;5014751;28;20033;-78
2021/08/25 06:10:05;;;;;;;22.67;14.10;;;;;;;40.40;19.29;94813.34;5032551;28;20029;-78
2021/08/25 06:12:30;;;;;;;22.38;14.35;;;;;;;39.65;20.20;94812.16;5014821;28;20029;-78
2021/08/25 06:14:55;;;;;;;28.25;14.02;;;;;;;38.66;21.05;94815.44;5014733;28;20037;-78
2021/08/25 06:17:21;;;;;;;25.25;14.13;;;;;;;37.58;22.55;94805.59;5032418;28;20463;-77
2021/08/25 06:19:46;;;;;;;32.03;14.38;;;;;;;36.66;23.41;94797.94;5032313;28;20108;-77
2021/08/25 06:22:12;;;;;;;25.55;14.98;;;;;;;36.34;24.01;94797.41;5084233;23;20048;-77
2021/08/25 06:24:37;;;;;;;20.55;14.63;;;;;;;36.19;24.31;94794.00;5052379;28;20029;-77
2021/08/25 06:27:03;;;;;;;20.95;14.02;;;;;;;35.95;24.52;94789.47;5049940;28;20536;-77
2021/08/25 06:29:29;;;;;;;29.27;13.65;;;;;;;35.73;25.24;94786.88;5051042;28;20114;-77
2021/08/25 06:31:54;;;;;;;26.30;16.30;;;;;;;35.34;25.23;94791.63;5051854;28;20021;-78
2021/08/25 06:34:19;;;;;;;31.20;16.40;;;;;;;34.63;26.22;94797.88;5049198;28;20124;-77
2021/08/25 06:36:45;;;;;;;23.60;15.35;;;;;;;34.37;26.76;94793.63;5051849;28;20044;-77
2021/08/25 06:39:10;;;;;;;27.67;13.68;;;;;;;34.10;27.59;94803.97;5051892;28;20045;-77
2021/08/25 06:41:36;;;;;;;25.15;13.85;;;;;;;34.30;27.22;94791.66;5050460;28;20021;-77
2021/08/25 06:44:01;;;;;;;24.42;14.90;;;;;;;34.16;27.42;94788.94;5052121;28;20033;-77
2021/08/25 06:46:27;;;;;;;29.80;15.05;;;;;;;34.24;27.29;94787.03;5050455;28;20087;-78
2021/08/25 06:48:52;;;;;;;25.55;14.35;;;;;;;34.20;27.17;94778.94;5051857;28;20033;-77
2021/08/25 06:51:18;;;;;;;22.42;15.52;;;;;;;34.09;27.00;94785.47;5049153;28;20044;-77
2021/08/25 06:53:43;;;;;;;27.02;16.05;;;;;;;33.48;28.11;94787.16;5051734;28;20040;-77
2021/08/25 06:56:09;;;;;;;27.77;15.52;;;;;;;33.47;28.04;94793.72;5092318;22;20039;-77
2021/08/25 06:58:34;;;;;;;17.95;13.95;;;;;;;33.61;28.07;94799.16;5027936;28;20119;-77
2021/08/25 07:00:59;;;;;;;26.23;15.38;;;;;;;33.49;28.26;94807.59;5031684;28;20033;-77
2021/08/25 07:03:25;;;;;;;30.10;13.68;;;;;;;33.36;28.30;94810.63;5013919;28;20468;-77
2021/08/25 07:05:50;;;;;;;21.55;15.30;;;;;;;32.98;28.72;94816.50;5036370;22;20060;-77
2021/08/25 07:08:25;;;;;;;28.25;15.73;;;;;;;32.54;29.47;94803.81;5031333;28;20025;-77
2021/08/25 07:10:50;;;;;;;31.05;15.73;;;;;;;31.99;30.62;94806.38;5031406;28;20560;-77
2021/08/25 07:13:15;;;;;;;20.65;16.52;;;;;;;31.60;31.01;94806.69;5031696;28;20037;-77
2021/08/25 07:15:41;;;;;;;25.73;16.67;;;;;;;31.17;31.72;94799.19;5031429;28;20036;-77
2021/08/25 07:18:06;;;;;;;25.40;16.67;;;;;;;30.70;32.53;94793.13;5013703;28;20038;-79
2021/08/25 07:20:32;;;;;;;21.23;15.85;;;;;;;30.31;33.49;94795.16;5014155;28;20536;-77
2021/08/25 07:22:57;;;;;;;29.27;17.80;;;;;;;29.95;33.97;94784.94;5017513;28;20021;-80
2021/08/25 07:25:23;;;;;;;28.50;18.00;;;;;;;29.44;34.84;94796.53;5062120;23;20118;-79
2021/08/25 07:27:48;;;;;;;24.67;17.30;;;;;;;28.79;36.35;94795.47;5076384;28;20090;-79
2021/08/25 07:30:14;;;;;;;25.88;17.88;;;;;;;28.46;37.08;94793.94;5076500;28;20040;-79
2021/08/25 07:32:40;;;;;;;24.58;17.92;;;;;;;28.25;37.33;94798.75;5075791;28;20060;-79
2021/08/25 07:35:09;;;;;;;29.55;17.50;;;;;;;28.06;38.03;94802.88;5058707;28;20048;-79
2021/08/25 07:37:35;;;;;;;36.92;19.15;;;;;;;27.92;37.73;94797.16;5058476;28;20039;-79
2021/08/25 07:40:01;;;;;;;30.02;17.90;;;;;;;27.77;38.42;94795.22;5075448;28;20055;-79
2021/08/25 07:42:26;;;;;;;22.92;18.05;;;;;;;27.39;39.69;94801.78;5058419;28;20029;-79
2021/08/25 07:44:52;;;;;;;27.17;18.27;;;;;;;27.65;39.51;94792.59;5076520;28;20024;-79
2021/08/25 07:47:17;;;;;;;34.05;19.77;;;;;;;27.74;38.68;94795.91;5058454;28;20435;-79
2021/08/25 07:49:42;;;;;;;29.58;18.52;;;;;;;27.82;38.49;94794.97;5074341;28;20032;-79
2021/08/25 07:52:08;;;;;;;30.92;18.73;;;;;;;27.96;38.03;94800.69;5076382;28;20531;-79
2021/08/25 07:54:33;;;;;;;34.10;18.15;;;;;;;28.19;37.38;94800.13;5077246;28;20507;-79
2021/08/25 07:56:59;;;;;;;21.90;15.70;;;;;;;28.56;37.20;94798.78;5074187;28;20032;-79
2021/08/25 07:59:24;;;;;;;28.60;16.55;;;;;;;29.01;36.45;94802.91;5077275;28;20431;-79
2021/08/25 08:01:49;;;;;;;28.90;17.17;;;;;;;29.42;35.31;94795.34;5075013;28;20050;-79
2021/08/25 08:04:15;;;;;;;30.45;17.17;;;;;;;29.75;34.60;94790.28;5077064;28;20040;-78
2021/08/25 08:06:40;;;;;;;27.20;16.27;;;;;;;30.11;33.88;94783.72;5057634;28;20032;-79
2021/08/25 08:09:15;;;;;;;20.33;15.30;;;;;;;30.43;33.11;94783.50;5075837;28;20024;-79
2021/08/25 08:11:41;;;;;;;23.70;15.07;;;;;;;30.72;32.63;94779.34;5073646;28;20033;-79
2021/08/25 08:14:07;;;;;;;29.98;15.65;;;;;;;30.90;32.32;94772.31;5074026;28;20161;-78
2021/08/25 08:16:35;;;;;;;21.83;15.77;;;;;;;30.96;32.14;94778.94;5076576;28;20084;-78
2021/08/25 08:19:16;;;;;;;26.80;16.60;;;;;;;30.82;32.68;94778.75;5077243;28;20112;-78
2021/08/25 08:21:42;;;;;;;23.27;14.35;;;;;;;30.87;33.04;94791.84;5076335;28;20108;-78
2021/08/25 08:24:07;;;;;;;26.65;15.40;;;;;;;30.90;32.83;94785.75;5078108;28;20039;-78
2021/08/25 08:26:33;;;;;;;22.58;16.25;;;;;;;30.85;32.96;94777.25;5058332;28;20064;-78
2021/08/25 08:28:59;;;;;;;21.88;15.43;;;;;;;30.87;33.20;94773.06;5074783;28;20033;-79
2021/08/25 08:31:25;;;;;;;28.77;15.88;;;;;;;30.85;33.12;94778.00;5075998;28;20388;-79
2021/08/25 08:33:51;;;;;;;23.55;15.88;;;;;;;30.90;32.83;94764.28;5074352;28;20035;-78
2021/08/25 08:36:16;;;;;;;18.70;15.32;;;;;;;30.83;32.94;94774.91;5074618;28;20024;-78
2021/08/25 08:38:42;;;;;;;26.70;14.73;;;;;;;30.76;32.98;94774.81;5074453;28;20044;-79
2021/08/25 08:41:07;;;;;;;30.30;15.82;;;;;;;30.75;32.77;94773.25;5075636;28;20043;-78
2021/08/25 08:43:32;;;;;;;24.13;17.75;;;;;;;30.54;33.28;94780.97;5074063;28;20032;-79
2021/08/25 08:45:58;;;;;;;21.55;14.52;;;;;;;30.48;33.99;94781.28;5075511;28;20040;-78
2021/08/25 08:48:23;;;;;;;27.65;15.23;;;;;;;30.43;33.25;94778.91;5075810;28;20029;-78
2021/08/25 08:50:52;;;;;;;20.35;14.02;;;;;;;30.41;33.54;94778.47;5073982;28;20040;-79
2021/08/25 08:53:17;;;;;;;22.70;14.07;;;;;;;30.26;33.77;94770.53;5077907;28;20050;-78
2021/08/25 08:55:46;;;;;;;22.10;14.13;;;;;;;29.93;34.29;94776.44;5078535;28;20024;-79
2021/08/25 08:58:11;;;;;;;18.50;14.07;;;;;;;29.81;34.55;94769.34;5077971;28;20100;-78
2021/08/25 09:00:39;;;;;;;20.38;13.80;;;;;;;29.86;34.63;94772.50;5078352;28;20017;-79
2021/08/25 09:03:22;;;;;;;30.98;14.20;;;;;;;29.96;34.07;94765.03;5061535;28;20079;-78
2021/08/25 09:05:55;;;;;;;19.90;13.15;;;;;;;30.00;34.32;94768.53;5078724;28;20089;-79
2021/08/25 09:08:25;;;;;;;25.17;13.27;;;;;;;30.03;34.37;94771.28;5078105;28;20099;-78
2021/08/25 09:11:01;;;;;;;21.73;12.90;;;;;;;30.20;33.60;94769.28;5044615;28;20491;-79
2021/08/25 09:13:37;;;;;;;20.75;12.95;;;;;;;30.22;33.75;94769.69;5079105;28;20036;-79
2021/08/25 09:16:03;;;;;;;23.83;12.55;;;;;;;30.25;33.58;94764.38;5072029;22;20065;-79
2021/08/25 09:18:29;;;;;;;36.65;13.40;;;;;;;30.18;33.73;94766.97;5038991;28;20040;-79
2021/08/25 09:20:57;;;;;;;24.52;13.35;;;;;;;30.22;33.44;94765.13;5043457;22;20188;-79
2021/08/25 09:23:24;;;;;;;18.85;13.30;;;;;;;30.26;33.21;94765.94;5038605;28;20069;-79
2021/08/25 09:25:54;;;;;;;15.00;12.25;;;;;;;30.24;33.18;94760.16;5039242;28;20037;-79
2021/08/25 09:28:36;;;;;;;17.48;12.93;;;;;;;30.18;33.13;94765.06;5037748;28;20034;-79
2021/08/25 09:31:08;;;;;;;16.88;13.43;;;;;;;30.00;33.44;94765.84;5037828;28;20029;-79
2021/08/25 09:33:38;;;;;;;14.35;12.57;;;;;;;29.55;33.71;94761.97;5046119;28;20470;-78
2021/08/25 09:36:05;;;;;;;19.85;12.57;;;;;;;29.31;34.08;94768.34;5047815;28;20036;-79
2021/08/25 09:38:31;;;;;;;21.23;13.23;;;;;;;28.77;35.08;94762.94;5043702;28;20037;-79
2021/08/25 09:41:00;;;;;;;24.35;13.55;;;;;;;28.39;36.21;94764.38;5096001;22;20053;-79
2021/08/25 09:43:40;;;;;;;18.13;12.52;;;;;;;28.45;36.18;94765.66;5042862;22;20034;-79
2021/08/25 09:46:14;;;;;;;19.05;12.48;;;;;;;28.53;36.02;94767.38;5037964;28;20033;-79
2021/08/25 09:48:46;;;;;;;18.48;12.90;;;;;;;28.22;36.53;94762.00;5038110;28;20053;-79
2021/08/25 09:51:13;;;;;;;25.25;12.30;;;;;;;28.38;36.28;94768.16;5038256;28;20091;-79
2021/08/25 09:53:38;;;;;;;14.43;12.32;;;;;;;28.64;35.65;94778.34;5001582;28;20099;-79
2021/08/25 09:56:22;;;;;;;17.75;12.55;;;;;;;28.52;36.05;94765.06;5036915;28;20471;-79
2021/08/25 09:58:47;;;;;;;18.88;12.15;;;;;;;28.53;36.08;94763.94;5038174;28;20045;-79
2021/08/25 10:01:13;;;;;;;19.50;11.85;;;;;;;28.54;37.09;94758.22;5019995;28;20020;-79
2021/08/25 10:03:39;;;;;;;32.00;12.18;;;;;;;28.46;36.56;94761.84;5003753;28;20040;-79
2021/08/25 10:06:04;;;;;;;25.33;12.88;;;;;;;28.15;36.63;94761.81;5065270;22;20050;-79
2021/08/25 10:08:29;;;;;;;19.38;12.55;;;;;;;28.03;36.96;94760.78;5038234;28;20029;-79
2021/08/25 10:10:55;;;;;;;21.38;12.80;;;;;;;27.95;37.68;94767.06;5041011;22;20044;-79
2021/08/25 10:13:20;;;;;;;29.58;14.30;;;;;;;27.82;40.28;94754.88;5019995;28;20029;-79
2021/08/25 10:15:52;;;;;;;28.90;12.80;;;;;;;27.68;39.48;94751.88;5036264;28;20037;-79
2021/08/25 10:18:28;;;;;;;23.98;13.07;;;;;;;27.62;39.21;94755.84;5036445;28;20021;-79
2021/08/25 10:20:55;;;;;;;28.10;13.77;;;;;;;27.56;40.67;94750.00;5020365;28;20042;-79
2021/08/25 10:23:32;;;;;;;23.63;13.95;;;;;;;27.46;44.51;94759.25;5056114;22;20037;-79
2021/08/25 10:26:05;;;;;;;25.63;15.45;;;;;;;27.14;43.13;94762.91;5044531;28;20044;-78
2021/08/25 10:29:00;;;;;;;21.90;16.80;;;;;;;27.13;44.51;94756.03;5050835;28;20033;-78
2021/08/25 10:31:40;;;;;;;26.33;16.38;;;;;;;27.21;42.29;94744.44;5050514;28;20036;-78
2021/08/25 10:34:13;;;;;;;27.02;16.85;;;;;;;27.29;43.11;94740.06;5030109;28;20052;-79
2021/08/25 10:36:39;;;;;;;28.67;15.65;;;;;;;27.44;42.04;94731.34;5020154;28;20034;-79
2021/08/25 10:39:32;;;;;;;24.27;15.85;;;;;;;27.69;41.55;94732.03;5037695;28;20069;-79
2021/08/25 10:41:58;;;;;;;20.23;14.48;;;;;;;27.83;41.22;94724.41;5037978;28;20026;-79
2021/08/25 10:44:46;;;;;;;26.73;15.77;;;;;;;28.11;40.18;94722.41;5036024;28;20029;-79
2021/08/25 10:47:12;;;;;;;23.70;14.55;;;;;;;28.33;38.19;94714.94;5037348;28;20029;-79
2021/08/25 10:49:42;;;;;;;31.33;15.10;;;;;;;28.29;38.34;94709.50;5040132;28;20028;-79
2021/08/25 10:52:14;;;;;;;27.90;14.05;;;;;;;28.32;37.56;94708.03;5037791;28;20037;-79
2021/08/25 10:54:46;;;;;;;23.02;13.80;;;;;;;28.37;37.77;94697.06;5039342;28;20477;-79
2021/08/25 10:57:14;;;;;;;36.42;14.00;;;;;;;28.53;37.91;94697.81;5037489;28;20041;-79
2021/08/25 10:59:40;;;;;;;29.52;15.55;;;;;;;28.08;38.39;94704.38;5019687;28;20468;-79
2021/08/25 11:02:06;;;;;;;19.98;14.55;;;;;;;28.07;38.97;94686.81;5037051;28;20504;-78
2021/08/25 11:04:31;;;;;;;24.73;13.90;;;;;;;28.26;38.17;94690.69;5038201;28;20120;-78
2021/08/25 11:07:10;;;;;;;22.67;14.38;;;;;;;28.38;38.07;94679.91;5019982;28;20029;-79
2021/08/25 11:09:35;;;;;;;19.63;14.18;;;;;;;28.17;37.84;94684.75;5020712;28;20026;-79
2021/08/25 11:12:07;;;;;;;30.60;13.95;;;;;;;28.15;38.10;94693.09;5036306;28;20031;-78
2021/08/25 11:14:34;;;;;;;;;;;;;;;28.18;37.49;94700.44;5019344;28;20115;-80
2021/08/25 11:17:07;;;;;;;17.48;13.40;;;;;;;28.23;36.83;94700.16;5035510;28;20369;-78
2021/08/25 11:19:36;;;;;;;16.75;13.15;;;;;;;28.31;38.04;94696.56;5035249;28;20136;-78
2021/08/25 11:22:02;;;;;;;27.48;13.95;;;;;;;28.50;37.72;94698.53;5040426;22;20061;-79
2021/08/25 11:24:31;;;;;;;29.77;13.80;;;;;;;28.68;36.62;94694.34;5036592;28;20040;-78
2021/08/25 11:26:57;;;;;;;23.85;14.13;;;;;;;28.87;36.54;94695.53;5036787;28;20033;-78